createdAt,value
2022-10-11T00:04:53.918Z,19.83
2022-10-11T00:09:58.838Z,18.83
2022-10-11T00:15:02.570Z,17.35
2022-10-11T00:20:08.342Z,16.67
2022-10-11T00:25:14.897Z,18.08
2022-10-11T00:30:18.880Z,18.95
2022-10-11T00:35:22.564Z,20.50
2022-10-11T00:40:27.503Z,15.52
2022-10-11T00:46:30.038Z,16.30
2022-10-11T00:51:45.255Z,16.17
2022-10-11T00:56:57.796Z,15.43
2022-10-11T01:02:01.584Z,13.88
2022-10-11T01:07:05.588Z,13.32
2022-10-11T01:12:20.778Z,14.52
2022-10-11T01:17:37.184Z,12.73
2022-10-11T01:24:07.470Z,13.18
2022-10-11T01:29:29.227Z,14.82
2022-10-11T01:34:41.689Z,11.25
2022-10-11T01:39:53.429Z,11.10
2022-10-11T01:44:58.679Z,14.90
2022-10-11T01:50:04.838Z,10.85
2022-10-11T01:55:22.314Z,12.13
2022-10-11T02:00:30.392Z,11.82
2022-10-11T02:05:47.565Z,10.45
2022-10-11T02:11:02.540Z,10.70
2022-10-11T02:16:13.710Z,10.60
2022-10-11T02:21:23.197Z,10.55
2022-10-11T02:26:30.532Z,9.68
2022-10-11T02:31:36.337Z,10.95
2022-10-11T02:36:52.267Z,8.55
2022-10-11T02:42:00.755Z,9.93
2022-10-11T02:47:06.534Z,8.57
2022-10-11T02:52:11.582Z,8.68
2022-10-11T02:57:15.209Z,7.70
2022-10-11T03:02:18.864Z,7.97
2022-10-11T03:07:23.994Z,7.35
2022-10-11T03:12:27.558Z,7.40
2022-10-11T03:17:36.517Z,6.38
2022-10-11T03:22:41.978Z,8.32
2022-10-11T03:27:45.759Z,7.55
2022-10-11T03:32:49.519Z,7.60
2022-10-11T03:37:54.395Z,6.38
2022-10-11T03:42:58.085Z,6.18
2022-10-11T03:48:01.767Z,6.70
2022-10-11T03:53:08.568Z,5.93
2022-10-11T03:58:12.217Z,5.83
2022-10-11T04:03:15.789Z,6.30
2022-10-11T04:08:20.596Z,7.63
2022-10-11T04:13:24.167Z,6.65
2022-10-11T04:18:27.567Z,6.43
2022-10-11T04:23:34.497Z,8.15
2022-10-11T04:28:38.012Z,5.30
2022-10-11T04:33:41.600Z,10.80
2022-10-11T04:38:46.776Z,5.18
2022-10-11T04:43:50.326Z,7.55
2022-10-11T04:48:53.902Z,7.65
2022-10-11T04:53:58.969Z,7.53
2022-10-11T04:59:02.474Z,7.40
2022-10-11T05:04:06.458Z,4.68
2022-10-11T05:09:11.269Z,7.13
2022-10-11T05:14:14.822Z,5.40
2022-10-11T05:19:18.354Z,6.50
2022-10-11T05:24:23.515Z,5.47
2022-10-11T05:29:27.655Z,4.72
2022-10-11T05:34:31.339Z,4.63
2022-10-11T05:39:36.217Z,4.40
2022-10-11T05:44:39.941Z,4.60
2022-10-11T05:49:43.421Z,4.90
2022-10-11T05:54:48.890Z,6.05
2022-10-11T05:59:52.570Z,5.60
2022-10-11T06:04:56.175Z,5.03
2022-10-11T06:10:01.792Z,4.28
2022-10-11T06:15:06.572Z,4.45
2022-10-11T06:20:11.437Z,6.55
2022-10-11T06:25:16.491Z,3.50
2022-10-11T06:30:20.208Z,7.35
2022-10-11T06:35:24.043Z,3.17
2022-10-11T06:40:29.338Z,4.32
2022-10-11T06:45:33.112Z,4.28
2022-10-11T06:50:58.456Z,3.92
2022-10-11T06:56:10.280Z,6.53
2022-10-11T07:01:19.532Z,4.68
2022-10-11T07:06:26.616Z,4.85
2022-10-11T07:11:32.586Z,4.50
2022-10-11T07:16:37.398Z,4.18
2022-10-11T07:21:40.927Z,5.20
2022-10-11T07:26:45.944Z,3.90
2022-10-11T07:31:49.458Z,4.63
2022-10-11T07:36:53.267Z,14.60
2022-10-11T07:41:58.147Z,13.88
2022-10-11T07:47:01.777Z,9.00
2022-10-11T07:52:05.475Z,10.93
2022-10-11T07:57:10.437Z,7.93
2022-10-11T08:02:15.228Z,14.02
2022-10-11T08:07:18.953Z,11.25
2022-10-11T08:12:23.803Z,10.93
2022-10-11T08:17:27.510Z,12.75
2022-10-11T08:22:31.297Z,9.55
2022-10-11T08:27:36.487Z,12.45
2022-10-11T08:32:39.999Z,8.95
2022-10-11T08:37:43.450Z,5.75
2022-10-11T08:42:57.972Z,9.35
2022-10-11T08:48:14.686Z,8.45
2022-10-11T08:53:29.877Z,8.68
2022-10-11T08:58:42.906Z,39.92
2022-10-11T09:03:48.886Z,39.38
2022-10-11T09:09:20.251Z,36.35
2022-10-11T09:14:58.736Z,34.50
2022-10-11T09:20:39.660Z,31.40
2022-10-11T09:25:52.991Z,26.25
2022-10-11T09:31:00.845Z,22.77
2022-10-11T09:36:20.291Z,22.90
2022-10-11T09:41:31.099Z,27.23
2022-10-11T09:46:39.539Z,21.20
2022-10-11T09:51:51.147Z,22.50
2022-10-11T09:56:55.376Z,19.85
2022-10-11T10:02:24.380Z,18.63
2022-10-11T10:07:31.418Z,19.65
2022-10-11T10:12:35.005Z,20.87
2022-10-11T10:17:40.079Z,15.80
2022-10-11T10:22:48.191Z,16.50
2022-10-11T10:28:00.043Z,15.13
2022-10-11T10:33:11.008Z,16.48
2022-10-11T10:38:26.552Z,12.10
2022-10-11T10:43:35.981Z,11.93
2022-10-11T10:54:29.066Z,17.35
2022-10-11T10:59:57.272Z,15.63
2022-10-11T11:05:18.959Z,13.52
2022-10-11T11:10:26.560Z,17.83
2022-10-11T11:15:38.154Z,20.75
2022-10-11T11:21:14.328Z,14.80
2022-10-11T11:26:28.964Z,12.60
2022-10-11T11:32:08.985Z,14.45
2022-10-11T11:37:28.030Z,12.20
2022-10-11T11:42:41.017Z,13.05
2022-10-11T11:47:54.163Z,13.10
2022-10-11T11:53:05.465Z,13.07
2022-10-11T11:58:31.828Z,10.70
2022-10-11T12:03:42.468Z,11.07
2022-10-11T12:08:56.636Z,10.55
2022-10-11T12:14:03.879Z,12.55
2022-10-11T12:19:08.342Z,13.63
2022-10-11T12:24:25.043Z,10.27
2022-10-11T12:29:49.619Z,11.02
2022-10-11T12:34:53.266Z,9.55
2022-10-11T12:40:00.602Z,10.60
2022-10-11T12:45:32.605Z,10.60
2022-10-11T12:50:52.643Z,9.95
2022-10-11T12:56:07.926Z,9.40
2022-10-11T13:01:22.728Z,9.77
2022-10-11T13:06:31.167Z,10.13
2022-10-11T13:11:44.562Z,8.48
2022-10-11T13:17:00.203Z,8.63
2022-10-11T13:22:15.182Z,8.38
2022-10-11T13:27:24.497Z,8.70
2022-10-11T13:32:31.933Z,8.45
2022-10-11T13:37:47.025Z,9.98
2022-10-11T13:42:54.216Z,8.88
2022-10-11T13:47:58.065Z,8.00
2022-10-11T13:53:04.904Z,7.82
2022-10-11T13:58:19.038Z,8.07
2022-10-11T14:03:24.737Z,7.65
2022-10-11T14:08:35.496Z,8.00
2022-10-11T14:13:42.770Z,7.38
2022-10-11T14:18:50.155Z,6.50
2022-10-11T14:23:55.850Z,7.63
2022-10-11T14:29:04.082Z,7.00
2022-10-11T14:34:08.848Z,6.72
2022-10-11T14:39:18.799Z,8.00
2022-10-11T14:44:24.394Z,7.30
2022-10-11T14:49:31.398Z,6.72
2022-10-11T14:54:35.724Z,6.43
2022-10-11T14:59:40.907Z,7.00
2022-10-11T15:04:44.605Z,6.05
2022-10-11T15:09:48.039Z,8.45
2022-10-11T15:14:53.366Z,8.18
2022-10-11T15:19:56.795Z,5.93
2022-10-11T15:25:00.329Z,9.25
2022-10-11T15:30:15.081Z,8.52
2022-10-11T15:35:20.662Z,5.72
2022-10-11T15:40:31.674Z,6.80
2022-10-11T15:45:37.532Z,7.68
2022-10-11T15:50:41.606Z,28.27
2022-10-11T15:55:49.515Z,28.88
2022-10-11T16:00:57.085Z,24.42
2022-10-11T16:06:05.187Z,20.75
2022-10-11T16:11:11.033Z,22.63
2022-10-11T16:16:15.873Z,18.70
2022-10-11T16:21:20.862Z,12.75
2022-10-11T16:26:24.485Z,13.73
2022-10-11T16:31:29.455Z,17.20
2022-10-11T16:36:35.630Z,20.35
2022-10-11T16:41:39.383Z,14.20
2022-10-11T16:46:47.799Z,14.05
2022-10-11T16:51:53.319Z,17.85
2022-10-11T16:56:57.181Z,10.93
2022-10-11T17:02:02.429Z,13.07
2022-10-11T17:07:12.244Z,13.07
2022-10-11T17:12:18.559Z,9.70
2022-10-11T17:17:23.786Z,18.70
2022-10-11T17:22:27.448Z,12.45
2022-10-11T17:27:31.290Z,13.63
2022-10-11T17:32:36.353Z,12.38
2022-10-11T17:37:39.892Z,11.90
2022-10-11T17:42:43.406Z,8.85
2022-10-11T17:47:48.360Z,9.18
2022-10-11T17:52:51.903Z,11.75
2022-10-11T17:57:55.380Z,9.52
2022-10-11T18:03:00.350Z,8.88
2022-10-11T18:08:03.969Z,9.77
2022-10-11T18:13:10.038Z,8.27
2022-10-11T18:18:18.281Z,7.45
2022-10-11T18:23:22.229Z,8.52
2022-10-11T18:28:26.011Z,8.18
2022-10-11T18:33:31.064Z,7.55
2022-10-11T18:38:35.889Z,6.40
2022-10-11T18:43:39.858Z,6.30
2022-10-11T18:48:47.857Z,5.93
2022-10-11T18:53:52.393Z,6.18
2022-10-11T18:58:58.422Z,6.15
2022-10-11T19:04:05.485Z,4.57
2022-10-11T19:09:13.051Z,6.93
2022-10-11T19:19:28.645Z,5.88
2022-10-11T19:24:33.634Z,5.63
2022-10-11T19:29:37.887Z,4.03
2022-10-11T19:34:42.881Z,3.80
2022-10-11T19:39:46.548Z,4.43
2022-10-11T19:44:50.096Z,5.90
2022-10-11T19:49:54.996Z,5.55
2022-10-11T19:54:58.568Z,5.20
2022-10-11T20:00:02.184Z,5.30
2022-10-11T20:05:10.348Z,5.22
2022-10-11T20:10:13.907Z,5.38
2022-10-11T20:15:17.845Z,4.85
2022-10-11T20:20:22.798Z,5.15
2022-10-11T20:25:26.497Z,5.05
2022-10-11T20:30:31.696Z,6.18
2022-10-11T20:35:36.752Z,5.57
2022-10-11T20:40:41.991Z,6.72
2022-10-11T20:45:47.289Z,6.05
2022-10-11T20:50:52.097Z,7.22
2022-10-11T20:55:56.599Z,11.50
2022-10-11T21:01:00.303Z,9.13
2022-10-11T21:06:05.600Z,10.10
2022-10-11T21:11:10.385Z,10.82
2022-10-11T21:16:18.119Z,32.35
2022-10-11T21:21:24.429Z,33.97
2022-10-11T21:26:29.154Z,31.33
2022-10-11T21:31:34.496Z,30.75
2022-10-11T21:36:39.617Z,31.63
2022-10-11T21:41:43.397Z,29.23
2022-10-11T21:47:06.980Z,31.35
2022-10-11T21:52:12.330Z,29.08
2022-10-11T21:57:15.934Z,30.73
2022-10-11T22:02:19.604Z,28.25
2022-10-11T22:07:24.601Z,28.20
2022-10-11T22:42:26.810Z,21.35
2022-10-11T22:47:31.455Z,23.10
2022-10-11T22:52:36.355Z,25.13
2022-10-11T22:57:39.798Z,22.38
2022-10-11T23:02:43.281Z,21.00
2022-10-11T23:07:49.897Z,19.35
2022-10-11T23:12:53.406Z,20.88
2022-10-11T23:17:57.115Z,17.95
2022-10-11T23:23:02.053Z,17.58
2022-10-11T23:28:06.383Z,15.63
2022-10-11T23:33:10.302Z,16.52
2022-10-11T23:38:15.092Z,14.60
2022-10-11T23:43:18.656Z,16.02
2022-10-11T23:48:22.331Z,12.60
2022-10-11T23:53:27.559Z,14.63
2022-10-11T23:58:31.250Z,14.38
